sensor_id;sensor_type;location;lat;lon;timestamp;temperature;humidity
13721;DHT22;6932;51.438;5.470;2023-02-28T00:00:34;10.10;61.70
13721;DHT22;6932;51.438;5.470;2023-02-28T00:03:01;10.10;61.70
13721;DHT22;6932;51.438;5.470;2023-02-28T00:05:28;10.10;61.70
13721;DHT22;6932;51.438;5.470;2023-02-28T00:07:54;10.10;61.80
13721;DHT22;6932;51.438;5.470;2023-02-28T00:10:23;10.10;61.80
13721;DHT22;6932;51.438;5.470;2023-02-28T00:12:53;10.10;61.80
13721;DHT22;6932;51.438;5.470;2023-02-28T00:15:22;10.10;61.80
13721;DHT22;6932;51.438;5.470;2023-02-28T00:17:49;10.00;61.90
13721;DHT22;6932;51.438;5.470;2023-02-28T00:20:16;10.00;61.90
13721;DHT22;6932;51.438;5.470;2023-02-28T00:22:44;10.00;61.90
13721;DHT22;6932;51.438;5.470;2023-02-28T00:25:16;10.00;62.00
13721;DHT22;6932;51.438;5.470;2023-02-28T00:27:47;10.00;62.10
13721;DHT22;6932;51.438;5.470;2023-02-28T00:30:15;10.00;62.10
13721;DHT22;6932;51.438;5.470;2023-02-28T00:32:44;10.00;62.10
13721;DHT22;6932;51.438;5.470;2023-02-28T00:35:11;10.00;62.20
13721;DHT22;6932;51.438;5.470;2023-02-28T00:37:37;9.90;62.20
13721;DHT22;6932;51.438;5.470;2023-02-28T00:40:04;9.90;62.20
13721;DHT22;6932;51.438;5.470;2023-02-28T00:42:32;9.90;62.20
13721;DHT22;6932;51.438;5.470;2023-02-28T00:44:58;9.90;62.30
13721;DHT22;6932;51.438;5.470;2023-02-28T00:47:24;9.90;62.30
13721;DHT22;6932;51.438;5.470;2023-02-28T00:49:50;9.90;62.30
13721;DHT22;6932;51.438;5.470;2023-02-28T00:52:15;9.80;62.30
13721;DHT22;6932;51.438;5.470;2023-02-28T00:54:41;9.90;62.30
13721;DHT22;6932;51.438;5.470;2023-02-28T00:57:07;9.80;62.30
13721;DHT22;6932;51.438;5.470;2023-02-28T00:59:33;9.80;62.30
13721;DHT22;6932;51.438;5.470;2023-02-28T01:01:59;9.80;62.40
13721;DHT22;6932;51.438;5.470;2023-02-28T01:04:24;9.80;62.40
13721;DHT22;6932;51.438;5.470;2023-02-28T01:06:50;9.80;62.50
13721;DHT22;6932;51.438;5.470;2023-02-28T01:09:16;9.80;62.50
13721;DHT22;6932;51.438;5.470;2023-02-28T01:11:42;9.80;62.50
13721;DHT22;6932;51.438;5.470;2023-02-28T01:14:14;9.80;62.60
13721;DHT22;6932;51.438;5.470;2023-02-28T01:16:42;9.70;62.60
13721;DHT22;6932;51.438;5.470;2023-02-28T01:19:08;9.80;62.60
13721;DHT22;6932;51.438;5.470;2023-02-28T01:21:34;9.70;62.60
13721;DHT22;6932;51.438;5.470;2023-02-28T01:24:04;9.70;62.70
13721;DHT22;6932;51.438;5.470;2023-02-28T01:26:31;9.70;62.70
13721;DHT22;6932;51.438;5.470;2023-02-28T01:28:58;9.70;62.70
13721;DHT22;6932;51.438;5.470;2023-02-28T01:31:24;9.70;62.70
13721;DHT22;6932;51.438;5.470;2023-02-28T01:33:50;9.70;62.80
13721;DHT22;6932;51.438;5.470;2023-02-28T01:36:21;9.70;62.80
13721;DHT22;6932;51.438;5.470;2023-02-28T01:38:49;9.60;62.80
13721;DHT22;6932;51.438;5.470;2023-02-28T01:41:18;9.70;62.90
13721;DHT22;6932;51.438;5.470;2023-02-28T01:46:13;9.60;62.80
13721;DHT22;6932;51.438;5.470;2023-02-28T01:48:48;9.60;62.90
13721;DHT22;6932;51.438;5.470;2023-02-28T01:51:37;9.60;62.90
13721;DHT22;6932;51.438;5.470;2023-02-28T01:54:16;9.60;62.90
13721;DHT22;6932;51.438;5.470;2023-02-28T01:56:49;9.60;62.90
13721;DHT22;6932;51.438;5.470;2023-02-28T01:59:31;9.60;63.00
13721;DHT22;6932;51.438;5.470;2023-02-28T02:02:03;9.60;63.00
13721;DHT22;6932;51.438;5.470;2023-02-28T02:04:37;9.60;63.00
13721;DHT22;6932;51.438;5.470;2023-02-28T02:07:07;9.60;63.10
13721;DHT22;6932;51.438;5.470;2023-02-28T02:09:34;9.60;63.10
13721;DHT22;6932;51.438;5.470;2023-02-28T02:12:13;9.60;63.10
13721;DHT22;6932;51.438;5.470;2023-02-28T02:15:18;9.50;63.10
13721;DHT22;6932;51.438;5.470;2023-02-28T02:17:52;9.50;63.10
13721;DHT22;6932;51.438;5.470;2023-02-28T02:29:31;9.50;63.10
13721;DHT22;6932;51.438;5.470;2023-02-28T02:40:23;9.50;63.10
13721;DHT22;6932;51.438;5.470;2023-02-28T02:42:58;9.50;63.10
13721;DHT22;6932;51.438;5.470;2023-02-28T02:45:46;9.50;63.10
13721;DHT22;6932;51.438;5.470;2023-02-28T02:48:20;9.50;63.10
13721;DHT22;6932;51.438;5.470;2023-02-28T02:50:55;9.50;63.00
13721;DHT22;6932;51.438;5.470;2023-02-28T02:53:27;9.50;63.00
13721;DHT22;6932;51.438;5.470;2023-02-28T02:55:58;9.50;63.00
13721;DHT22;6932;51.438;5.470;2023-02-28T02:58:30;9.50;63.10
13721;DHT22;6932;51.438;5.470;2023-02-28T03:01:02;9.50;63.10
13721;DHT22;6932;51.438;5.470;2023-02-28T03:03:31;9.40;63.10
13721;DHT22;6932;51.438;5.470;2023-02-28T03:06:00;9.40;63.10
13721;DHT22;6932;51.438;5.470;2023-02-28T03:08:28;9.40;63.00
13721;DHT22;6932;51.438;5.470;2023-02-28T03:11:01;9.40;63.10
13721;DHT22;6932;51.438;5.470;2023-02-28T03:17:35;9.40;63.10
13721;DHT22;6932;51.438;5.470;2023-02-28T03:19:56;9.40;63.20
13721;DHT22;6932;51.438;5.470;2023-02-28T03:28:17;9.30;63.20
13721;DHT22;6932;51.438;5.470;2023-02-28T03:31:00;9.30;63.30
13721;DHT22;6932;51.438;5.470;2023-02-28T03:33:48;9.30;63.30
13721;DHT22;6932;51.438;5.470;2023-02-28T03:36:29;9.30;63.30
13721;DHT22;6932;51.438;5.470;2023-02-28T03:39:09;9.30;63.30
13721;DHT22;6932;51.438;5.470;2023-02-28T03:42:14;9.30;63.30
13721;DHT22;6932;51.438;5.470;2023-02-28T03:44:46;9.20;63.30
13721;DHT22;6932;51.438;5.470;2023-02-28T03:52:50;9.20;63.30
13721;DHT22;6932;51.438;5.470;2023-02-28T03:55:33;9.30;63.40
13721;DHT22;6932;51.438;5.470;2023-02-28T04:00:44;9.20;63.30
13721;DHT22;6932;51.438;5.470;2023-02-28T04:03:14;9.30;63.40
13721;DHT22;6932;51.438;5.470;2023-02-28T04:06:07;9.30;63.50
13721;DHT22;6932;51.438;5.470;2023-02-28T04:08:38;9.20;63.50
13721;DHT22;6932;51.438;5.470;2023-02-28T04:11:08;9.30;63.40
13721;DHT22;6932;51.438;5.470;2023-02-28T04:13:43;9.30;63.50
13721;DHT22;6932;51.438;5.470;2023-02-28T04:16:35;9.30;63.50
13721;DHT22;6932;51.438;5.470;2023-02-28T04:19:03;9.20;63.60
13721;DHT22;6932;51.438;5.470;2023-02-28T04:21:33;9.30;63.60
13721;DHT22;6932;51.438;5.470;2023-02-28T04:24:00;9.20;63.60
13721;DHT22;6932;51.438;5.470;2023-02-28T04:26:30;9.30;63.60
13721;DHT22;6932;51.438;5.470;2023-02-28T04:29:01;9.30;63.60
13721;DHT22;6932;51.438;5.470;2023-02-28T04:31:33;9.30;63.60
13721;DHT22;6932;51.438;5.470;2023-02-28T04:33:59;9.30;63.60
13721;DHT22;6932;51.438;5.470;2023-02-28T04:36:26;9.30;63.60
13721;DHT22;6932;51.438;5.470;2023-02-28T04:38:52;9.30;63.60
13721;DHT22;6932;51.438;5.470;2023-02-28T04:41:18;9.30;63.60
13721;DHT22;6932;51.438;5.470;2023-02-28T04:43:45;9.30;63.60
13721;DHT22;6932;51.438;5.470;2023-02-28T04:46:11;9.30;63.60
13721;DHT22;6932;51.438;5.470;2023-02-28T04:48:38;9.30;63.60
13721;DHT22;6932;51.438;5.470;2023-02-28T04:51:09;9.30;63.60
13721;DHT22;6932;51.438;5.470;2023-02-28T04:53:38;9.40;63.70
13721;DHT22;6932;51.438;5.470;2023-02-28T04:56:06;9.40;63.70
13721;DHT22;6932;51.438;5.470;2023-02-28T04:58:33;9.40;63.60
13721;DHT22;6932;51.438;5.470;2023-02-28T05:01:13;9.40;63.60
13721;DHT22;6932;51.438;5.470;2023-02-28T05:03:53;9.40;63.50
13721;DHT22;6932;51.438;5.470;2023-02-28T05:06:21;9.40;63.40
13721;DHT22;6932;51.438;5.470;2023-02-28T05:08:52;9.40;63.40
13721;DHT22;6932;51.438;5.470;2023-02-28T05:11:25;9.40;63.40
13721;DHT22;6932;51.438;5.470;2023-02-28T05:13:54;9.40;63.40
13721;DHT22;6932;51.438;5.470;2023-02-28T05:16:20;9.40;63.30
13721;DHT22;6932;51.438;5.470;2023-02-28T05:18:46;9.40;63.30
13721;DHT22;6932;51.438;5.470;2023-02-28T05:21:26;9.40;63.30
13721;DHT22;6932;51.438;5.470;2023-02-28T05:23:59;9.40;63.20
13721;DHT22;6932;51.438;5.470;2023-02-28T05:26:27;9.40;63.20
13721;DHT22;6932;51.438;5.470;2023-02-28T05:28:53;9.40;63.20
13721;DHT22;6932;51.438;5.470;2023-02-28T05:31:20;9.40;63.10
13721;DHT22;6932;51.438;5.470;2023-02-28T05:33:46;9.40;63.00
13721;DHT22;6932;51.438;5.470;2023-02-28T05:36:12;9.40;63.00
13721;DHT22;6932;51.438;5.470;2023-02-28T05:38:38;9.50;63.00
13721;DHT22;6932;51.438;5.470;2023-02-28T05:41:10;9.50;63.00
13721;DHT22;6932;51.438;5.470;2023-02-28T05:43:37;9.50;62.90
13721;DHT22;6932;51.438;5.470;2023-02-28T05:46:05;9.50;63.00
13721;DHT22;6932;51.438;5.470;2023-02-28T05:48:35;9.50;63.10
13721;DHT22;6932;51.438;5.470;2023-02-28T05:51:02;9.50;63.00
13721;DHT22;6932;51.438;5.470;2023-02-28T05:53:32;9.50;63.00
13721;DHT22;6932;51.438;5.470;2023-02-28T05:55:59;9.50;62.90
13721;DHT22;6932;51.438;5.470;2023-02-28T05:58:25;9.50;63.00
13721;DHT22;6932;51.438;5.470;2023-02-28T06:00:54;9.50;63.00
13721;DHT22;6932;51.438;5.470;2023-02-28T06:03:20;9.60;63.00
13721;DHT22;6932;51.438;5.470;2023-02-28T06:05:46;9.50;62.90
13721;DHT22;6932;51.438;5.470;2023-02-28T06:08:12;9.50;63.00
13721;DHT22;6932;51.438;5.470;2023-02-28T06:10:38;9.50;63.00
13721;DHT22;6932;51.438;5.470;2023-02-28T06:13:04;9.50;62.90
13721;DHT22;6932;51.438;5.470;2023-02-28T06:15:31;9.50;62.90
13721;DHT22;6932;51.438;5.470;2023-02-28T06:17:58;9.60;63.10
13721;DHT22;6932;51.438;5.470;2023-02-28T06:20:27;9.50;63.00
13721;DHT22;6932;51.438;5.470;2023-02-28T06:22:57;9.50;63.00
13721;DHT22;6932;51.438;5.470;2023-02-28T06:25:26;9.60;63.00
13721;DHT22;6932;51.438;5.470;2023-02-28T06:27:53;9.60;63.00
13721;DHT22;6932;51.438;5.470;2023-02-28T06:30:20;9.50;62.90
13721;DHT22;6932;51.438;5.470;2023-02-28T06:32:50;9.60;63.00
13721;DHT22;6932;51.438;5.470;2023-02-28T06:35:17;9.50;62.90
13721;DHT22;6932;51.438;5.470;2023-02-28T06:37:43;9.50;62.90
13721;DHT22;6932;51.438;5.470;2023-02-28T06:40:11;9.60;62.90
13721;DHT22;6932;51.438;5.470;2023-02-28T06:42:38;9.60;62.80
13721;DHT22;6932;51.438;5.470;2023-02-28T06:45:04;9.60;62.90
13721;DHT22;6932;51.438;5.470;2023-02-28T06:47:35;9.60;62.90
13721;DHT22;6932;51.438;5.470;2023-02-28T06:50:02;9.60;62.80
13721;DHT22;6932;51.438;5.470;2023-02-28T06:52:29;9.60;62.80
13721;DHT22;6932;51.438;5.470;2023-02-28T06:54:55;9.70;62.70
13721;DHT22;6932;51.438;5.470;2023-02-28T06:57:28;9.70;62.60
13721;DHT22;6932;51.438;5.470;2023-02-28T06:59:59;9.80;62.50
13721;DHT22;6932;51.438;5.470;2023-02-28T07:02:26;9.90;62.40
13721;DHT22;6932;51.438;5.470;2023-02-28T07:04:53;9.90;62.40
13721;DHT22;6932;51.438;5.470;2023-02-28T07:07:18;10.00;62.20
13721;DHT22;6932;51.438;5.470;2023-02-28T07:09:44;10.00;62.70
13721;DHT22;6932;51.438;5.470;2023-02-28T07:12:10;10.10;61.90
13721;DHT22;6932;51.438;5.470;2023-02-28T07:14:37;10.20;61.50
13721;DHT22;6932;51.438;5.470;2023-02-28T07:17:02;10.30;61.30
13721;DHT22;6932;51.438;5.470;2023-02-28T07:19:28;10.30;61.10
13721;DHT22;6932;51.438;5.470;2023-02-28T07:21:54;10.40;60.90
13721;DHT22;6932;51.438;5.470;2023-02-28T07:24:20;10.50;60.60
13721;DHT22;6932;51.438;5.470;2023-02-28T07:26:49;10.60;60.30
13721;DHT22;6932;51.438;5.470;2023-02-28T07:29:14;10.70;60.00
13721;DHT22;6932;51.438;5.470;2023-02-28T07:31:40;10.70;59.60
13721;DHT22;6932;51.438;5.470;2023-02-28T07:34:06;10.80;59.40
13721;DHT22;6932;51.438;5.470;2023-02-28T07:36:31;10.90;59.10
13721;DHT22;6932;51.438;5.470;2023-02-28T07:38:58;10.90;59.00
13721;DHT22;6932;51.438;5.470;2023-02-28T07:41:24;10.90;58.90
13721;DHT22;6932;51.438;5.470;2023-02-28T07:43:54;11.00;58.70
13721;DHT22;6932;51.438;5.470;2023-02-28T07:46:21;11.00;58.20
13721;DHT22;6932;51.438;5.470;2023-02-28T07:48:46;11.10;58.00
13721;DHT22;6932;51.438;5.470;2023-02-28T07:51:12;11.10;57.70
13721;DHT22;6932;51.438;5.470;2023-02-28T07:53:38;11.20;57.50
13721;DHT22;6932;51.438;5.470;2023-02-28T07:56:04;11.30;57.50
13721;DHT22;6932;51.438;5.470;2023-02-28T07:58:31;11.40;57.10
13721;DHT22;6932;51.438;5.470;2023-02-28T08:00:57;11.50;57.00
13721;DHT22;6932;51.438;5.470;2023-02-28T08:03:29;11.50;56.70
13721;DHT22;6932;51.438;5.470;2023-02-28T08:05:55;11.70;56.70
13721;DHT22;6932;51.438;5.470;2023-02-28T08:08:21;11.80;56.40
13721;DHT22;6932;51.438;5.470;2023-02-28T08:10:46;11.80;56.00
13721;DHT22;6932;51.438;5.470;2023-02-28T08:13:12;11.90;55.80
13721;DHT22;6932;51.438;5.470;2023-02-28T08:15:39;12.00;54.80
13721;DHT22;6932;51.438;5.470;2023-02-28T08:18:06;12.00;53.50
13721;DHT22;6932;51.438;5.470;2023-02-28T08:20:32;11.90;52.70
13721;DHT22;6932;51.438;5.470;2023-02-28T08:22:57;11.80;53.00
13721;DHT22;6932;51.438;5.470;2023-02-28T08:25:23;11.60;53.30
13721;DHT22;6932;51.438;5.470;2023-02-28T08:27:51;11.50;53.30
13721;DHT22;6932;51.438;5.470;2023-02-28T08:30:17;11.40;53.60
13721;DHT22;6932;51.438;5.470;2023-02-28T08:32:43;11.30;54.00
13721;DHT22;6932;51.438;5.470;2023-02-28T08:35:10;11.30;53.90
13721;DHT22;6932;51.438;5.470;2023-02-28T08:37:36;11.40;54.10
13721;DHT22;6932;51.438;5.470;2023-02-28T08:40:01;11.50;53.70
13721;DHT22;6932;51.438;5.470;2023-02-28T08:42:29;11.70;53.70
13721;DHT22;6932;51.438;5.470;2023-02-28T08:44:55;11.80;53.00
13721;DHT22;6932;51.438;5.470;2023-02-28T08:47:21;11.90;52.50
13721;DHT22;6932;51.438;5.470;2023-02-28T08:49:47;12.10;52.10
13721;DHT22;6932;51.438;5.470;2023-02-28T08:52:13;12.20;51.80
13721;DHT22;6932;51.438;5.470;2023-02-28T08:54:39;12.30;51.70
13721;DHT22;6932;51.438;5.470;2023-02-28T08:57:05;12.40;51.40
13721;DHT22;6932;51.438;5.470;2023-02-28T08:59:31;12.50;51.40
13721;DHT22;6932;51.438;5.470;2023-02-28T09:01:57;12.60;51.20
13721;DHT22;6932;51.438;5.470;2023-02-28T09:04:23;12.70;51.00
13721;DHT22;6932;51.438;5.470;2023-02-28T09:06:50;12.80;50.80
13721;DHT22;6932;51.438;5.470;2023-02-28T09:09:16;12.90;50.60
13721;DHT22;6932;51.438;5.470;2023-02-28T09:11:41;12.90;50.40
13721;DHT22;6932;51.438;5.470;2023-02-28T09:14:07;13.10;50.40
13721;DHT22;6932;51.438;5.470;2023-02-28T09:16:34;13.10;49.80
13721;DHT22;6932;51.438;5.470;2023-02-28T09:19:00;13.20;49.20
13721;DHT22;6932;51.438;5.470;2023-02-28T09:21:26;13.30;48.90
13721;DHT22;6932;51.438;5.470;2023-02-28T09:23:53;13.30;48.30
13721;DHT22;6932;51.438;5.470;2023-02-28T09:26:20;13.30;48.30
13721;DHT22;6932;51.438;5.470;2023-02-28T09:28:51;13.30;47.90
13721;DHT22;6932;51.438;5.470;2023-02-28T09:31:23;13.40;47.90
13721;DHT22;6932;51.438;5.470;2023-02-28T09:33:52;13.40;47.50
13721;DHT22;6932;51.438;5.470;2023-02-28T09:36:19;13.50;47.00
13721;DHT22;6932;51.438;5.470;2023-02-28T09:38:45;13.50;46.60
13721;DHT22;6932;51.438;5.470;2023-02-28T09:41:23;13.50;46.60
13721;DHT22;6932;51.438;5.470;2023-02-28T09:44:00;13.60;46.40
13721;DHT22;6932;51.438;5.470;2023-02-28T09:46:38;13.60;46.20
13721;DHT22;6932;51.438;5.470;2023-02-28T09:49:12;13.60;45.70
13721;DHT22;6932;51.438;5.470;2023-02-28T09:51:51;13.70;45.30
13721;DHT22;6932;51.438;5.470;2023-02-28T09:54:32;13.70;45.00
13721;DHT22;6932;51.438;5.470;2023-02-28T09:57:14;13.60;45.40
13721;DHT22;6932;51.438;5.470;2023-02-28T10:00:05;13.60;44.90
13721;DHT22;6932;51.438;5.470;2023-02-28T10:05:35;13.70;44.70
13721;DHT22;6932;51.438;5.470;2023-02-28T10:08:14;13.70;44.30
13721;DHT22;6932;51.438;5.470;2023-02-28T10:10:51;13.60;44.40
13721;DHT22;6932;51.438;5.470;2023-02-28T10:13:32;13.60;44.60
13721;DHT22;6932;51.438;5.470;2023-02-28T10:16:29;13.60;44.40
13721;DHT22;6932;51.438;5.470;2023-02-28T10:19:20;13.60;44.00
13721;DHT22;6932;51.438;5.470;2023-02-28T10:21:53;13.70;43.70
13721;DHT22;6932;51.438;5.470;2023-02-28T10:24:39;13.70;43.70
13721;DHT22;6932;51.438;5.470;2023-02-28T10:27:20;13.70;43.60
13721;DHT22;6932;51.438;5.470;2023-02-28T10:29:56;13.70;43.70
13721;DHT22;6932;51.438;5.470;2023-02-28T10:32:30;13.70;43.80
13721;DHT22;6932;51.438;5.470;2023-02-28T10:37:32;13.80;43.90
13721;DHT22;6932;51.438;5.470;2023-02-28T10:40:07;13.80;44.10
13721;DHT22;6932;51.438;5.470;2023-02-28T10:43:12;13.80;44.00
13721;DHT22;6932;51.438;5.470;2023-02-28T10:48:44;13.90;44.40
13721;DHT22;6932;51.438;5.470;2023-02-28T10:51:16;14.00;43.60
13721;DHT22;6932;51.438;5.470;2023-02-28T10:53:52;14.00;43.30
13721;DHT22;6932;51.438;5.470;2023-02-28T10:56:22;13.90;43.30
13721;DHT22;6932;51.438;5.470;2023-02-28T10:59:01;14.00;43.30
13721;DHT22;6932;51.438;5.470;2023-02-28T11:01:46;13.90;43.10
13721;DHT22;6932;51.438;5.470;2023-02-28T11:07:19;13.90;43.50
13721;DHT22;6932;51.438;5.470;2023-02-28T11:10:18;13.90;43.60
13721;DHT22;6932;51.438;5.470;2023-02-28T11:12:46;13.90;43.60
13721;DHT22;6932;51.438;5.470;2023-02-28T11:15:27;13.90;43.50
13721;DHT22;6932;51.438;5.470;2023-02-28T11:20:48;14.00;43.10
13721;DHT22;6932;51.438;5.470;2023-02-28T11:23:16;13.90;43.20
13721;DHT22;6932;51.438;5.470;2023-02-28T11:25:51;13.90;43.20
13721;DHT22;6932;51.438;5.470;2023-02-28T11:33:53;13.80;43.70
13721;DHT22;6932;51.438;5.470;2023-02-28T11:36:22;13.80;43.50
13721;DHT22;6932;51.438;5.470;2023-02-28T11:38:51;13.80;43.90
13721;DHT22;6932;51.438;5.470;2023-02-28T11:47:00;13.70;44.50
13721;DHT22;6932;51.438;5.470;2023-02-28T11:52:36;13.80;44.60
13721;DHT22;6932;51.438;5.470;2023-02-28T11:55:37;13.80;44.40
13721;DHT22;6932;51.438;5.470;2023-02-28T12:12:18;13.90;44.10
13721;DHT22;6932;51.438;5.470;2023-02-28T12:28:48;13.70;43.80
13721;DHT22;6932;51.438;5.470;2023-02-28T12:31:22;13.70;44.10
13721;DHT22;6932;51.438;5.470;2023-02-28T12:33:59;13.70;44.20
13721;DHT22;6932;51.438;5.470;2023-02-28T12:36:29;13.60;44.10
13721;DHT22;6932;51.438;5.470;2023-02-28T12:39:23;13.60;44.30
13721;DHT22;6932;51.438;5.470;2023-02-28T12:42:11;13.50;44.40
13721;DHT22;6932;51.438;5.470;2023-02-28T12:45:50;13.50;44.30
13721;DHT22;6932;51.438;5.470;2023-02-28T12:48:20;13.50;44.60
13721;DHT22;6932;51.438;5.470;2023-02-28T12:50:51;13.50;44.70
13721;DHT22;6932;51.438;5.470;2023-02-28T12:56:09;13.40;44.70
13721;DHT22;6932;51.438;5.470;2023-02-28T12:58:42;13.40;45.00
13721;DHT22;6932;51.438;5.470;2023-02-28T13:04:54;13.40;45.80
13721;DHT22;6932;51.438;5.470;2023-02-28T13:10:05;13.50;45.00
13721;DHT22;6932;51.438;5.470;2023-02-28T13:12:33;13.40;45.00
13721;DHT22;6932;51.438;5.470;2023-02-28T13:17:56;13.40;44.70
13721;DHT22;6932;51.438;5.470;2023-02-28T13:20:35;13.40;44.70
13721;DHT22;6932;51.438;5.470;2023-02-28T13:26:05;13.30;44.90
13721;DHT22;6932;51.438;5.470;2023-02-28T13:31:16;13.30;44.90
13721;DHT22;6932;51.438;5.470;2023-02-28T13:41:56;13.30;45.00
13721;DHT22;6932;51.438;5.470;2023-02-28T13:44:23;13.30;45.00
13721;DHT22;6932;51.438;5.470;2023-02-28T13:54:52;13.30;44.90
13721;DHT22;6932;51.438;5.470;2023-02-28T14:06:27;13.40;44.90
13721;DHT22;6932;51.438;5.470;2023-02-28T14:11:35;13.30;45.00
13721;DHT22;6932;51.438;5.470;2023-02-28T14:14:03;13.30;45.10
13721;DHT22;6932;51.438;5.470;2023-02-28T14:16:40;13.40;45.40
13721;DHT22;6932;51.438;5.470;2023-02-28T14:19:24;13.30;45.20
13721;DHT22;6932;51.438;5.470;2023-02-28T14:32:54;13.30;45.40
13721;DHT22;6932;51.438;5.470;2023-02-28T14:36:03;13.30;45.60
13721;DHT22;6932;51.438;5.470;2023-02-28T14:38:36;13.30;45.50
13721;DHT22;6932;51.438;5.470;2023-02-28T14:41:31;13.30;45.70
13721;DHT22;6932;51.438;5.470;2023-02-28T14:44:18;13.30;45.70
13721;DHT22;6932;51.438;5.470;2023-02-28T14:46:50;13.30;45.70
13721;DHT22;6932;51.438;5.470;2023-02-28T14:49:28;13.30;45.80
13721;DHT22;6932;51.438;5.470;2023-02-28T14:52:25;13.30;45.70
13721;DHT22;6932;51.438;5.470;2023-02-28T14:57:31;13.30;45.40
13721;DHT22;6932;51.438;5.470;2023-02-28T15:02:46;13.20;45.50
13721;DHT22;6932;51.438;5.470;2023-02-28T15:07:47;13.20;45.60
13721;DHT22;6932;51.438;5.470;2023-02-28T15:21:02;13.10;46.00
13721;DHT22;6932;51.438;5.470;2023-02-28T15:23:34;13.10;46.10
13721;DHT22;6932;51.438;5.470;2023-02-28T15:26:02;13.20;46.20
13721;DHT22;6932;51.438;5.470;2023-02-28T15:28:29;13.10;46.10
13721;DHT22;6932;51.438;5.470;2023-02-28T15:30:59;13.10;46.00
13721;DHT22;6932;51.438;5.470;2023-02-28T15:33:53;13.10;46.00
13721;DHT22;6932;51.438;5.470;2023-02-28T15:36:20;13.10;46.00
13721;DHT22;6932;51.438;5.470;2023-02-28T15:38:53;13.20;46.00
13721;DHT22;6932;51.438;5.470;2023-02-28T15:41:28;13.10;46.10
13721;DHT22;6932;51.438;5.470;2023-02-28T15:44:30;13.10;46.10
13721;DHT22;6932;51.438;5.470;2023-02-28T15:47:14;13.10;46.10
13721;DHT22;6932;51.438;5.470;2023-02-28T15:49:54;13.10;46.10
13721;DHT22;6932;51.438;5.470;2023-02-28T15:52:44;13.10;46.10
13721;DHT22;6932;51.438;5.470;2023-02-28T15:55:20;13.10;46.30
13721;DHT22;6932;51.438;5.470;2023-02-28T15:57:53;13.10;46.30
13721;DHT22;6932;51.438;5.470;2023-02-28T16:00:26;13.10;46.40
13721;DHT22;6932;51.438;5.470;2023-02-28T16:02:53;13.10;46.50
13721;DHT22;6932;51.438;5.470;2023-02-28T16:05:30;13.10;46.50
13721;DHT22;6932;51.438;5.470;2023-02-28T16:08:14;13.00;46.60
13721;DHT22;6932;51.438;5.470;2023-02-28T16:10:41;13.00;46.80
13721;DHT22;6932;51.438;5.470;2023-02-28T16:13:08;13.00;46.90
13721;DHT22;6932;51.438;5.470;2023-02-28T16:15:41;13.00;46.90
13721;DHT22;6932;51.438;5.470;2023-02-28T16:18:11;13.00;46.90
13721;DHT22;6932;51.438;5.470;2023-02-28T16:21:05;13.00;46.90
13721;DHT22;6932;51.438;5.470;2023-02-28T16:23:31;12.90;47.00
13721;DHT22;6932;51.438;5.470;2023-02-28T16:25:57;13.00;47.00
13721;DHT22;6932;51.438;5.470;2023-02-28T16:28:35;13.00;47.10
13721;DHT22;6932;51.438;5.470;2023-02-28T16:31:05;12.90;47.10
13721;DHT22;6932;51.438;5.470;2023-02-28T16:33:33;12.90;47.10
13721;DHT22;6932;51.438;5.470;2023-02-28T16:36:00;13.00;47.20
13721;DHT22;6932;51.438;5.470;2023-02-28T16:38:26;12.90;47.20
13721;DHT22;6932;51.438;5.470;2023-02-28T16:40:55;13.00;47.40
13721;DHT22;6932;51.438;5.470;2023-02-28T16:43:25;12.90;47.40
13721;DHT22;6932;51.438;5.470;2023-02-28T16:45:56;12.90;47.50
13721;DHT22;6932;51.438;5.470;2023-02-28T16:48:24;12.90;47.50
13721;DHT22;6932;51.438;5.470;2023-02-28T16:50:50;12.90;47.60
13721;DHT22;6932;51.438;5.470;2023-02-28T16:53:16;12.90;47.70
13721;DHT22;6932;51.438;5.470;2023-02-28T16:55:42;12.90;47.80
13721;DHT22;6932;51.438;5.470;2023-02-28T16:58:15;12.90;47.80
13721;DHT22;6932;51.438;5.470;2023-02-28T17:00:42;12.90;47.80
13721;DHT22;6932;51.438;5.470;2023-02-28T17:05:50;12.80;47.70
13721;DHT22;6932;51.438;5.470;2023-02-28T17:08:15;12.80;47.80
13721;DHT22;6932;51.438;5.470;2023-02-28T17:10:42;12.80;47.90
13721;DHT22;6932;51.438;5.470;2023-02-28T17:13:07;12.80;47.90
13721;DHT22;6932;51.438;5.470;2023-02-28T17:15:34;12.80;47.90
13721;DHT22;6932;51.438;5.470;2023-02-28T17:18:01;12.80;48.00
13721;DHT22;6932;51.438;5.470;2023-02-28T17:20:29;12.70;48.00
13721;DHT22;6932;51.438;5.470;2023-02-28T17:22:56;12.70;48.10
13721;DHT22;6932;51.438;5.470;2023-02-28T17:25:23;12.70;48.10
13721;DHT22;6932;51.438;5.470;2023-02-28T17:27:49;12.70;48.20
13721;DHT22;6932;51.438;5.470;2023-02-28T17:30:22;12.70;48.30
13721;DHT22;6932;51.438;5.470;2023-02-28T17:32:56;12.60;48.30
13721;DHT22;6932;51.438;5.470;2023-02-28T17:35:22;12.60;48.40
13721;DHT22;6932;51.438;5.470;2023-02-28T17:37:48;12.60;48.50
13721;DHT22;6932;51.438;5.470;2023-02-28T17:40:16;12.60;48.60
13721;DHT22;6932;51.438;5.470;2023-02-28T17:42:44;12.60;48.60
13721;DHT22;6932;51.438;5.470;2023-02-28T17:45:11;12.50;48.60
13721;DHT22;6932;51.438;5.470;2023-02-28T17:47:39;12.50;48.70
13721;DHT22;6932;51.438;5.470;2023-02-28T17:50:06;12.50;48.70
13721;DHT22;6932;51.438;5.470;2023-02-28T17:52:32;12.50;48.80
13721;DHT22;6932;51.438;5.470;2023-02-28T17:55:02;12.40;48.90
13721;DHT22;6932;51.438;5.470;2023-02-28T17:57:29;12.40;48.90
13721;DHT22;6932;51.438;5.470;2023-02-28T17:59:55;12.40;49.00
13721;DHT22;6932;51.438;5.470;2023-02-28T18:02:20;12.40;49.00
13721;DHT22;6932;51.438;5.470;2023-02-28T18:04:46;12.30;49.00
13721;DHT22;6932;51.438;5.470;2023-02-28T18:07:12;12.30;49.10
13721;DHT22;6932;51.438;5.470;2023-02-28T18:09:38;12.30;49.20
13721;DHT22;6932;51.438;5.470;2023-02-28T18:12:04;12.30;49.30
13721;DHT22;6932;51.438;5.470;2023-02-28T18:14:45;12.30;49.30
13721;DHT22;6932;51.438;5.470;2023-02-28T18:17:12;12.20;49.40
13721;DHT22;6932;51.438;5.470;2023-02-28T18:19:38;12.20;50.30
13721;DHT22;6932;51.438;5.470;2023-02-28T18:22:04;12.20;49.60
13721;DHT22;6932;51.438;5.470;2023-02-28T18:24:33;12.20;49.60
13721;DHT22;6932;51.438;5.470;2023-02-28T18:26:59;12.20;49.80
13721;DHT22;6932;51.438;5.470;2023-02-28T18:29:26;12.10;49.70
13721;DHT22;6932;51.438;5.470;2023-02-28T18:31:54;12.10;49.70
13721;DHT22;6932;51.438;5.470;2023-02-28T18:34:22;12.10;49.80
13721;DHT22;6932;51.438;5.470;2023-02-28T18:36:50;12.10;49.80
13721;DHT22;6932;51.438;5.470;2023-02-28T18:39:17;12.10;49.90
13721;DHT22;6932;51.438;5.470;2023-02-28T18:41:43;12.10;49.90
13721;DHT22;6932;51.438;5.470;2023-02-28T18:44:09;12.00;50.00
13721;DHT22;6932;51.438;5.470;2023-02-28T18:46:35;12.00;50.00
13721;DHT22;6932;51.438;5.470;2023-02-28T18:49:01;12.00;50.10
13721;DHT22;6932;51.438;5.470;2023-02-28T18:51:28;12.00;50.10
13721;DHT22;6932;51.438;5.470;2023-02-28T18:53:54;12.00;50.20
13721;DHT22;6932;51.438;5.470;2023-02-28T18:56:23;12.00;50.30
13721;DHT22;6932;51.438;5.470;2023-02-28T18:58:51;12.00;50.30
13721;DHT22;6932;51.438;5.470;2023-02-28T19:01:21;11.90;50.20
13721;DHT22;6932;51.438;5.470;2023-02-28T19:03:50;11.90;50.30
13721;DHT22;6932;51.438;5.470;2023-02-28T19:06:17;11.90;50.40
13721;DHT22;6932;51.438;5.470;2023-02-28T19:08:43;11.90;50.50